Time;durP1;ratioP1;P1;durP2;ratioP2;P2;SDS_P1;SDS_P2;PMS_P1;PMS_P2;Temp;Humidity;BMP_temperature;BMP_pressure;BME280_temperature;BME280_humidity;BME280_pressure;Samples;Min_cycle;Max_cycle;Signal;HPM_P1;HPM_P2
2021/03/16 04:13:49;;;;;;;2.20;2.00;;;0.40;99.90;;;;;;5091488;28;20048;-67
2021/03/16 04:16:19;;;;;;;2.10;1.80;;;0.30;99.90;;;;;;5092312;28;20442;-67
2021/03/16 04:18:47;;;;;;;2.85;1.90;;;0.30;99.90;;;;;;5093582;28;20073;-67
2021/03/16 04:21:13;;;;;;;3.15;2.00;;;0.30;99.90;;;;;;5091717;28;20098;-67
2021/03/16 04:23:40;;;;;;;2.85;2.05;;;0.20;99.90;;;;;;5091749;28;20463;-69
2021/03/16 04:26:05;;;;;;;2.53;1.75;;;0.30;99.90;;;;;;5092499;28;20379;-67
2021/03/16 04:28:31;;;;;;;2.42;1.75;;;0.30;99.90;;;;;;5092032;28;20081;-66
2021/03/16 04:30:57;;;;;;;2.13;1.92;;;0.30;99.90;;;;;;5092200;28;20024;-66
2021/03/16 04:33:23;;;;;;;4.07;2.35;;;0.30;99.90;;;;;;5092209;28;20047;-66
2021/03/16 04:35:49;;;;;;;3.55;2.22;;;0.20;99.90;;;;;;5091925;28;20472;-66
2021/03/16 04:38:15;;;;;;;2.65;2.20;;;0.20;99.90;;;;;;5091895;28;20067;-66
2021/03/16 04:40:41;;;;;;;5.25;2.10;;;0.20;99.90;;;;;;5091858;28;20095;-66
2021/03/16 04:43:08;;;;;;;1.92;1.75;;;0.20;99.90;;;;;;5091921;28;20035;-66
2021/03/16 04:45:33;;;;;;;2.92;2.17;;;0.20;99.90;;;;;;5091961;28;20404;-66
2021/03/16 04:47:59;;;;;;;2.95;2.10;;;0.10;99.90;;;;;;5091896;28;20034;-66
2021/03/16 04:50:25;;;;;;;2.67;1.95;;;0.10;99.90;;;;;;5091755;28;20028;-66
2021/03/16 04:52:52;;;;;;;3.50;2.03;;;0.10;99.90;;;;;;5091887;28;20023;-66
2021/03/16 04:55:18;;;;;;;3.38;2.03;;;0.10;99.70;;;;;;5091848;28;20104;-66
2021/03/16 04:57:43;;;;;;;2.53;2.05;;;0.00;99.30;;;;;;5092220;28;20016;-66
2021/03/16 05:00:10;;;;;;;4.15;2.20;;;0.00;99.40;;;;;;5091764;28;20035;-68
2021/03/16 05:02:36;;;;;;;2.63;2.10;;;-0.10;99.40;;;;;;5092167;28;20036;-68
2021/03/16 05:05:03;;;;;;;4.20;2.17;;;-0.10;99.00;;;;;;5091887;28;20389;-68
2021/03/16 05:07:29;;;;;;;2.20;2.00;;;-0.20;99.00;;;;;;5091621;28;20035;-68
2021/03/16 05:09:54;;;;;;;2.45;2.05;;;-0.20;98.90;;;;;;5092046;28;20024;-67
2021/03/16 05:12:20;;;;;;;3.13;2.35;;;-0.30;98.90;;;;;;5091880;28;20375;-67
2021/03/16 05:14:46;;;;;;;2.58;2.00;;;-0.30;99.00;;;;;;5091528;28;20040;-67
2021/03/16 05:17:12;;;;;;;2.60;2.08;;;-0.30;98.70;;;;;;5091655;28;20028;-67
2021/03/16 05:19:39;;;;;;;3.20;2.30;;;-0.40;98.90;;;;;;5091845;28;20085;-66
2021/03/16 05:22:04;;;;;;;5.05;2.10;;;-0.40;99.00;;;;;;5091471;28;20405;-66
2021/03/16 05:24:30;;;;;;;2.85;2.30;;;-0.50;99.00;;;;;;5091364;28;20072;-67
2021/03/16 05:26:57;;;;;;;2.63;2.00;;;-0.50;99.10;;;;;;5091732;28;20119;-66
2021/03/16 05:29:22;;;;;;;2.95;2.10;;;-0.50;99.10;;;;;;5091416;28;20401;-66
2021/03/16 05:31:48;;;;;;;3.38;2.00;;;-0.50;99.00;;;;;;5091611;28;20017;-71
2021/03/16 05:34:14;;;;;;;2.40;1.70;;;-0.50;99.10;;;;;;5094021;28;20038;-66
2021/03/16 05:36:40;;;;;;;7.78;2.35;;;-0.50;99.90;;;;;;5095204;28;20107;-66
2021/03/16 05:39:05;;;;;;;2.60;2.05;;;-0.30;99.90;;;;;;5095216;28;20028;-65
2021/03/16 05:41:32;;;;;;;4.50;2.28;;;-0.20;99.20;;;;;;5094975;28;20032;-67
2021/03/16 05:44:01;;;;;;;2.97;2.10;;;-0.30;98.80;;;;;;5095038;28;20039;-69
2021/03/16 05:46:27;;;;;;;2.00;1.80;;;-0.40;98.80;;;;;;5094969;28;20090;-69
2021/03/16 05:48:55;;;;;;;3.60;2.35;;;-0.40;99.40;;;;;;5094940;28;20024;-67
2021/03/16 05:51:22;;;;;;;2.65;2.10;;;-0.40;99.50;;;;;;5094660;28;20443;-68
2021/03/16 05:53:49;;;;;;;3.08;2.50;;;-0.40;99.70;;;;;;5094640;28;20024;-69
2021/03/16 05:56:15;;;;;;;2.30;2.10;;;-0.40;99.30;;;;;;5094567;28;20067;-69
2021/03/16 05:58:44;;;;;;;2.83;1.92;;;-0.40;99.40;;;;;;5094908;28;20047;-67
2021/03/16 06:01:12;;;;;;;3.17;2.38;;;-0.40;98.80;;;;;;5094239;28;20020;-66
2021/03/16 06:03:38;;;;;;;2.50;2.22;;;-0.40;99.20;;;;;;5094262;28;20073;-66
2021/03/16 06:06:04;;;;;;;2.15;1.95;;;-0.50;99.20;;;;;;5094572;28;20020;-66
2021/03/16 06:08:31;;;;;;;2.90;2.10;;;-0.50;98.90;;;;;;5094260;28;20024;-66
2021/03/16 06:10:58;;;;;;;3.88;2.05;;;-0.50;99.20;;;;;;5094414;28;20024;-69
2021/03/16 06:13:24;;;;;;;4.00;2.08;;;-0.50;99.20;;;;;;5094009;28;20372;-69
2021/03/16 06:15:51;;;;;;;3.35;2.35;;;-0.50;99.20;;;;;;5076292;28;20024;-70
2021/03/16 06:18:27;;;;;;;2.28;2.00;;;-0.50;99.40;;;;;;5094064;28;20162;-68
2021/03/16 06:21:03;;;;;;;2.90;2.10;;;-0.40;99.00;;;;;;5094385;28;20028;-68
2021/03/16 06:23:34;;;;;;;3.08;2.35;;;-0.40;98.60;;;;;;5094394;28;20059;-68
2021/03/16 06:26:01;;;;;;;2.42;1.90;;;-0.40;98.80;;;;;;5094282;28;20049;-68
2021/03/16 06:28:35;;;;;;;2.70;2.25;;;-0.40;99.00;;;;;;5076106;28;20489;-68
2021/03/16 06:31:01;;;;;;;2.58;2.13;;;-0.30;99.20;;;;;;5094232;28;20479;-68
2021/03/16 06:33:29;;;;;;;4.45;2.13;;;-0.30;98.80;;;;;;5094434;28;20104;-69
2021/03/16 06:36:05;;;;;;;2.20;1.90;;;-0.30;99.00;;;;;;5094367;28;20027;-69
2021/03/16 06:38:32;;;;;;;2.17;1.98;;;-0.30;99.00;;;;;;5094065;28;20035;-69
2021/03/16 06:41:16;;;;;;;2.10;1.90;;;-0.30;98.50;;;;;;5094243;28;20024;-69
2021/03/16 06:44:00;;;;;;;2.13;1.77;;;-0.40;98.50;;;;;;5094030;28;20032;-69
2021/03/16 06:46:37;;;;;;;4.13;1.90;;;-0.40;99.10;;;;;;5093160;28;20053;-68
2021/03/16 06:49:13;;;;;;;2.53;1.98;;;-0.30;98.70;;;;;;5094042;28;20074;-69
2021/03/16 06:51:39;;;;;;;2.38;1.88;;;-0.20;98.50;;;;;;5093796;28;20052;-66
2021/03/16 06:54:18;;;;;;;2.95;2.20;;;-0.20;98.50;;;;;;5093957;28;20063;-67
2021/03/16 06:56:58;;;;;;;1.90;1.80;;;-0.20;98.30;;;;;;5075575;28;20472;-69
2021/03/16 06:59:26;;;;;;;2.97;2.00;;;-0.20;98.10;;;;;;5093810;28;20021;-68
2021/03/16 07:01:52;;;;;;;3.75;2.10;;;0.00;99.90;;;;;;5093477;28;20062;-69
2021/03/16 07:04:31;;;;;;;2.10;1.70;;;1.70;99.90;;;;;;5093443;28;20383;-69
2021/03/16 07:06:58;;;;;;;2.65;1.80;;;3.30;99.90;;;;;;5093544;28;20091;-70
2021/03/16 07:09:24;;;;;;;3.17;1.70;;;4.30;99.90;;;;;;5092884;28;20028;-69
2021/03/16 07:11:51;;;;;;;2.50;1.55;;;4.70;99.90;;;;;;5093560;28;20032;-68
2021/03/16 07:14:20;;;;;;;2.65;1.92;;;4.40;83.40;;;;;;5092976;28;20052;-68
2021/03/16 07:16:47;;;;;;;3.22;2.03;;;3.20;81.00;;;;;;5093333;28;20529;-68
2021/03/16 07:19:15;;;;;;;4.45;2.00;;;2.30;86.40;;;;;;5093337;28;20118;-68
2021/03/16 07:21:52;;;;;;;2.40;1.85;;;1.80;89.60;;;;;;5093152;28;20028;-68
2021/03/16 07:24:38;;;;;;;2.00;1.80;;;1.40;90.80;;;;;;5092941;28;20056;-68
2021/03/16 07:27:04;;;;;;;5.53;1.90;;;1.10;90.70;;;;;;5092649;28;20511;-68
2021/03/16 07:29:31;;;;;;;2.50;1.80;;;1.00;92.40;;;;;;5092940;28;20028;-68
2021/03/16 07:31:58;;;;;;;2.03;1.75;;;0.90;92.90;;;;;;5093409;28;20050;-68
2021/03/16 07:34:25;;;;;;;2.10;1.80;;;0.80;92.40;;;;;;5092778;28;20027;-68
2021/03/16 07:36:53;;;;;;;2.45;2.13;;;2.70;99.90;;;;;;5093049;28;20026;-69
2021/03/16 07:39:24;;;;;;;3.78;2.25;;;2.90;91.00;;;;;;5092587;28;20115;-68
2021/03/16 07:41:51;;;;;;;2.47;2.00;;;2.50;88.80;;;;;;5092842;28;20110;-70
2021/03/16 07:44:19;;;;;;;2.25;1.92;;;2.00;87.80;;;;;;5092689;28;20032;-70
2021/03/16 07:47:01;;;;;;;3.40;1.88;;;1.60;90.30;;;;;;5092741;28;20399;-70
2021/03/16 07:49:34;;;;;;;2.22;1.77;;;1.40;91.40;;;;;;5092584;28;20479;-70
2021/03/16 07:52:01;;;;;;;3.13;1.90;;;1.20;90.50;;;;;;5092847;28;20073;-70
2021/03/16 07:54:37;;;;;;;3.28;2.03;;;1.00;91.60;;;;;;5092662;28;20133;-70
2021/03/16 07:57:04;;;;;;;3.13;2.00;;;0.90;91.50;;;;;;5092602;28;20016;-70
2021/03/16 07:59:34;;;;;;;2.88;1.95;;;0.90;91.90;;;;;;5092780;28;20475;-70
2021/03/16 08:02:01;;;;;;;2.58;1.77;;;0.80;91.70;;;;;;5092477;28;20040;-70
2021/03/16 08:04:34;;;;;;;2.78;2.30;;;0.90;92.50;;;;;;5092120;28;20026;-70
2021/03/16 08:07:01;;;;;;;3.30;2.45;;;0.90;91.70;;;;;;5092463;28;20388;-70
2021/03/16 08:09:27;;;;;;;2.92;2.30;;;0.80;92.00;;;;;;5092162;28;20020;-70
2021/03/16 08:11:53;;;;;;;3.13;2.45;;;0.80;91.70;;;;;;5092006;28;20030;-70
2021/03/16 08:14:30;;;;;;;2.55;2.13;;;0.90;91.00;;;;;;5091930;28;20048;-70
2021/03/16 08:16:56;;;;;;;3.13;2.00;;;0.80;89.00;;;;;;5092417;28;20364;-69
2021/03/16 08:19:42;;;;;;;2.85;2.40;;;0.70;90.50;;;;;;5074014;28;20020;-69
2021/03/16 08:22:10;;;;;;;3.13;2.25;;;0.80;89.70;;;;;;5091656;28;20445;-70
2021/03/16 08:24:39;;;;;;;3.58;2.42;;;0.80;89.90;;;;;;5091529;28;20024;-71
2021/03/16 08:27:27;;;;;;;3.42;2.35;;;1.00;91.50;;;;;;5091839;28;20732;-68
2021/03/16 08:29:53;;;;;;;2.88;2.20;;;2.00;90.20;;;;;;5083702;28;20426;-67
2021/03/16 08:32:21;;;;;;;3.10;2.08;;;1.90;87.60;;;;;;5091939;28;20024;-68
2021/03/16 08:34:48;;;;;;;5.43;2.45;;;1.70;86.70;;;;;;5073924;28;20052;-67
2021/03/16 08:37:27;;;;;;;3.80;2.53;;;1.60;86.80;;;;;;5092119;28;20070;-68
2021/03/16 08:39:54;;;;;;;2.63;2.33;;;1.50;86.00;;;;;;5091568;28;20124;-67
2021/03/16 08:42:22;;;;;;;3.35;2.97;;;1.40;87.00;;;;;;5091066;28;20060;-68
2021/03/16 08:44:48;;;;;;;3.85;2.60;;;1.40;87.60;;;;;;5091193;28;20024;-70
2021/03/16 08:47:19;;;;;;;3.20;2.47;;;1.40;86.50;;;;;;5090783;28;20028;-68
2021/03/16 08:49:48;;;;;;;4.20;2.28;;;1.40;86.40;;;;;;5091274;28;20424;-68
2021/03/16 08:52:25;;;;;;;3.33;2.47;;;1.30;85.20;;;;;;5073830;28;20031;-68
2021/03/16 08:54:54;;;;;;;3.88;2.33;;;1.20;85.70;;;;;;5091766;28;20119;-68
2021/03/16 08:57:22;;;;;;;4.22;2.78;;;1.30;86.40;;;;;;5092140;28;20035;-68
2021/03/16 08:59:49;;;;;;;2.42;2.22;;;1.20;87.00;;;;;;5091744;28;20379;-68
2021/03/16 09:02:22;;;;;;;3.38;2.55;;;1.20;86.30;;;;;;5073905;28;20423;-68
2021/03/16 09:04:49;;;;;;;3.50;2.50;;;1.20;85.10;;;;;;5091826;28;20119;-68
2021/03/16 09:07:25;;;;;;;3.83;2.40;;;1.20;86.10;;;;;;5091777;28;20028;-68
2021/03/16 09:10:11;;;;;;;3.80;2.90;;;1.20;84.00;;;;;;5095819;28;20038;-68
2021/03/16 09:12:41;;;;;;;3.63;2.60;;;1.10;86.50;;;;;;5095422;28;20024;-68
2021/03/16 09:15:32;;;;;;;4.85;2.67;;;1.10;85.30;;;;;;5095319;28;20044;-68
2021/03/16 09:18:04;;;;;;;3.95;2.83;;;1.20;86.20;;;;;;5077647;28;20059;-68
2021/03/16 09:20:35;;;;;;;3.00;2.35;;;1.20;85.80;;;;;;5095484;28;20024;-70
2021/03/16 09:23:06;;;;;;;4.10;2.95;;;1.30;85.80;;;;;;5095484;28;20058;-72
2021/03/16 09:25:37;;;;;;;3.83;2.88;;;1.40;85.10;;;;;;5095655;28;20372;-77
2021/03/16 09:28:06;;;;;;;4.07;2.85;;;1.30;83.40;;;;;;5095454;28;20541;-71
2021/03/16 09:30:33;;;;;;;4.20;2.90;;;1.40;90.20;;;;;;5094387;28;20028;-71
2021/03/16 09:33:00;;;;;;;5.70;2.78;;;1.50;84.80;;;;;;5095614;28;20027;-72
2021/03/16 09:35:26;;;;;;;4.03;3.00;;;1.40;83.70;;;;;;5095219;28;20115;-68
2021/03/16 09:37:53;;;;;;;3.70;2.92;;;1.30;88.90;;;;;;5095217;28;20035;-69
2021/03/16 09:40:33;;;;;;;3.30;2.50;;;1.30;85.90;;;;;;5094808;28;20024;-66
2021/03/16 09:42:59;;;;;;;3.13;2.50;;;2.00;97.80;;;;;;5076698;28;20067;-68
2021/03/16 09:45:32;;;;;;;3.75;2.90;;;2.10;86.60;;;;;;5093730;28;20032;-68
2021/03/16 09:47:59;;;;;;;3.42;2.60;;;2.00;83.10;;;;;;5094802;28;20031;-68
2021/03/16 09:50:35;;;;;;;3.55;2.63;;;1.90;83.20;;;;;;5094639;28;20050;-69
2021/03/16 09:53:06;;;;;;;3.78;2.83;;;1.80;82.60;;;;;;5095042;28;20059;-68
2021/03/16 09:55:33;;;;;;;3.28;2.47;;;1.90;83.00;;;;;;5094448;28;20027;-69
2021/03/16 09:57:59;;;;;;;6.30;2.60;;;1.90;84.20;;;;;;5094608;28;20028;-66
2021/03/16 10:00:26;;;;;;;3.22;2.70;;;1.90;81.50;;;;;;5094315;28;20491;-66
2021/03/16 10:03:08;;;;;;;3.50;2.42;;;1.90;82.10;;;;;;5094489;28;20039;-66
2021/03/16 10:05:34;;;;;;;3.78;3.17;;;1.90;81.70;;;;;;5094419;28;20506;-66
2021/03/16 10:08:01;;;;;;;3.08;2.58;;;2.00;82.40;;;;;;5094931;28;20101;-68
2021/03/16 10:10:30;;;;;;;3.58;2.53;;;2.00;82.70;;;;;;5059742;28;20474;-67
2021/03/16 10:13:14;;;;;;;3.28;2.72;;;2.10;81.60;;;;;;5094547;28;20035;-66
2021/03/16 10:15:41;;;;;;;3.50;2.50;;;2.10;80.70;;;;;;5094439;28;20134;-67
2021/03/16 10:18:08;;;;;;;3.25;2.63;;;2.10;82.10;;;;;;5094399;28;20429;-67
2021/03/16 10:20:37;;;;;;;2.60;2.28;;;2.20;81.50;;;;;;5076721;28;20480;-68
2021/03/16 10:23:10;;;;;;;2.83;2.35;;;2.20;81.40;;;;;;5090041;28;20098;-67
2021/03/16 10:25:37;;;;;;;3.50;3.10;;;2.30;81.50;;;;;;5091327;28;20020;-68
2021/03/16 10:28:05;;;;;;;3.95;2.70;;;2.30;81.40;;;;;;5093774;28;20050;-67
2021/03/16 10:30:43;;;;;;;3.83;2.97;;;2.30;82.50;;;;;;5093855;28;20031;-67
2021/03/16 10:33:11;;;;;;;4.20;2.50;;;2.40;81.50;;;;;;5094180;28;20024;-68
2021/03/16 10:35:38;;;;;;;3.55;2.78;;;2.40;81.10;;;;;;5094255;28;20032;-68
2021/03/16 10:38:06;;;;;;;3.38;2.72;;;2.50;81.20;;;;;;5094115;28;20372;-67
2021/03/16 10:40:34;;;;;;;3.45;2.60;;;2.60;80.90;;;;;;5093789;28;20487;-67
2021/03/16 10:43:00;;;;;;;3.00;2.70;;;2.60;80.70;;;;;;5093991;28;20040;-68
2021/03/16 10:45:27;;;;;;;2.90;2.50;;;2.60;80.20;;;;;;5094103;28;20020;-68
2021/03/16 10:47:53;;;;;;;3.35;2.47;;;2.70;81.40;;;;;;5093884;28;20032;-67
2021/03/16 10:50:19;;;;;;;3.25;2.70;;;2.70;80.10;;;;;;5093808;28;20020;-69
2021/03/16 10:52:45;;;;;;;2.95;2.60;;;2.70;79.70;;;;;;5075579;28;20399;-70
2021/03/16 10:55:11;;;;;;;2.75;2.30;;;2.70;79.30;;;;;;5093652;28;20549;-69
2021/03/16 10:57:37;;;;;;;4.97;2.72;;;2.70;79.60;;;;;;5093505;28;20024;-70
2021/03/16 11:00:05;;;;;;;2.72;2.00;;;2.70;80.00;;;;;;5093450;28;20020;-70
2021/03/16 11:02:30;;;;;;;3.92;2.35;;;2.60;79.50;;;;;;5093416;28;20093;-69
2021/03/16 11:04:56;;;;;;;4.82;3.00;;;2.60;77.80;;;;;;5093499;28;20024;-69
2021/03/16 11:07:22;;;;;;;3.65;2.65;;;2.60;77.40;;;;;;5093515;28;20398;-69
2021/03/16 11:09:48;;;;;;;5.03;3.05;;;2.60;79.10;;;;;;5093283;28;20035;-70
2021/03/16 11:12:17;;;;;;;5.30;2.70;;;2.60;77.70;;;;;;5093430;28;20020;-70
2021/03/16 11:14:43;;;;;;;3.67;2.70;;;2.50;77.00;;;;;;5093133;28;20047;-68
2021/03/16 11:17:09;;;;;;;3.05;2.55;;;2.50;78.10;;;;;;5091505;28;20091;-68
2021/03/16 11:19:34;;;;;;;2.65;2.13;;;2.50;78.50;;;;;;5088770;28;20158;-68
2021/03/16 11:22:00;;;;;;;3.10;2.60;;;2.60;78.00;;;;;;5092208;28;20040;-68
2021/03/16 11:24:26;;;;;;;3.28;2.10;;;2.60;78.60;;;;;;5092098;28;20016;-68
2021/03/16 11:26:52;;;;;;;3.58;2.60;;;2.60;77.80;;;;;;5092634;28;20027;-72
2021/03/16 11:29:17;;;;;;;2.50;2.30;;;2.60;77.80;;;;;;5092986;28;20034;-72
2021/03/16 11:31:43;;;;;;;4.47;2.55;;;2.60;77.90;;;;;;5091573;28;20127;-68
2021/03/16 11:34:09;;;;;;;2.80;2.47;;;2.50;76.80;;;;;;5093102;28;20051;-69
2021/03/16 11:36:35;;;;;;;2.92;2.55;;;2.40;77.30;;;;;;5092959;28;20020;-67
2021/03/16 11:39:01;;;;;;;3.28;2.67;;;2.40;78.10;;;;;;5092538;28;20031;-68
2021/03/16 11:41:26;;;;;;;4.47;2.63;;;2.40;78.30;;;;;;5092652;28;20027;-70
2021/03/16 11:43:52;;;;;;;3.00;2.53;;;2.50;77.70;;;;;;5092304;28;20620;-69
2021/03/16 11:46:18;;;;;;;3.42;2.60;;;2.50;77.70;;;;;;5092659;28;20028;-70
2021/03/16 11:48:44;;;;;;;3.03;2.40;;;2.50;78.70;;;;;;5092288;28;20088;-69
2021/03/16 11:51:10;;;;;;;4.03;2.65;;;2.60;78.20;;;;;;5092648;28;20020;-68
2021/03/16 11:53:35;;;;;;;2.60;2.35;;;2.60;77.90;;;;;;5092296;28;20031;-68
2021/03/16 11:56:01;;;;;;;2.90;2.40;;;2.60;76.00;;;;;;5092310;28;20032;-70
2021/03/16 11:58:27;;;;;;;2.75;2.20;;;2.50;74.90;;;;;;5074219;28;20024;-70
2021/03/16 12:00:53;;;;;;;3.35;2.58;;;2.50;75.40;;;;;;5091399;28;20476;-68
2021/03/16 12:03:19;;;;;;;2.88;2.38;;;2.50;76.20;;;;;;5092510;28;20400;-68
2021/03/16 12:05:45;;;;;;;2.65;2.15;;;2.50;75.80;;;;;;5097984;28;20024;-71
2021/03/16 12:08:11;;;;;;;3.15;2.38;;;2.50;74.60;;;;;;5088529;28;20407;-71
2021/03/16 12:10:37;;;;;;;2.95;2.55;;;2.50;75.20;;;;;;5090690;28;20058;-71
2021/03/16 12:13:03;;;;;;;3.30;2.20;;;2.40;74.60;;;;;;5091741;28;20039;-71
2021/03/16 12:15:29;;;;;;;2.75;2.00;;;2.40;75.00;;;;;;5091090;28;20044;-69
2021/03/16 12:17:54;;;;;;;4.75;2.80;;;2.40;74.80;;;;;;5091316;28;20024;-71
2021/03/16 12:20:21;;;;;;;2.47;2.28;;;2.70;90.60;;;;;;5091233;28;20031;-75
2021/03/16 12:22:46;;;;;;;2.53;2.30;;;3.30;79.80;;;;;;5091704;28;20050;-71
2021/03/16 12:25:12;;;;;;;2.63;2.40;;;3.30;75.00;;;;;;5091672;28;20471;-71
2021/03/16 12:27:38;;;;;;;3.20;2.50;;;3.10;75.10;;;;;;5091226;28;20072;-71
2021/03/16 12:30:06;;;;;;;2.75;2.10;;;2.90;74.70;;;;;;5091583;28;20020;-71
2021/03/16 12:32:32;;;;;;;2.72;2.10;;;2.80;73.90;;;;;;5091465;28;20024;-71
2021/03/16 12:34:58;;;;;;;2.70;2.50;;;2.60;74.00;;;;;;5091860;28;20412;-71
2021/03/16 12:37:24;;;;;;;2.95;2.30;;;2.50;75.20;;;;;;5090988;28;20035;-71
2021/03/16 12:39:49;;;;;;;2.55;2.33;;;2.50;75.80;;;;;;5090973;28;20028;-71
2021/03/16 12:42:16;;;;;;;3.20;2.75;;;2.60;78.20;;;;;;5073012;28;20044;-72
2021/03/16 12:44:43;;;;;;;3.03;2.35;;;2.60;74.50;;;;;;5095261;28;20095;-72
2021/03/16 12:47:09;;;;;;;3.08;2.30;;;2.60;75.20;;;;;;5096242;28;20077;-72
2021/03/16 12:49:35;;;;;;;3.10;2.47;;;2.60;76.30;;;;;;5096270;28;20028;-71
2021/03/16 12:52:01;;;;;;;2.97;2.60;;;2.60;75.50;;;;;;5095980;28;20099;-72
2021/03/16 12:54:27;;;;;;;2.78;2.47;;;2.60;74.90;;;;;;5096334;28;20028;-72
2021/03/16 12:56:53;;;;;;;2.70;2.50;;;2.60;74.90;;;;;;5096102;28;20082;-72
2021/03/16 12:59:20;;;;;;;2.67;2.30;;;2.60;74.40;;;;;;5095906;28;20509;-72
2021/03/16 13:01:47;;;;;;;2.47;2.28;;;2.60;74.80;;;;;;5095736;28;20028;-73
2021/03/16 13:04:13;;;;;;;2.70;2.22;;;2.60;75.20;;;;;;5095890;28;20056;-73
2021/03/16 13:06:39;;;;;;;2.20;2.00;;;2.60;74.50;;;;;;5095562;28;20536;-73
2021/03/16 13:09:06;;;;;;;2.30;2.00;;;2.50;74.70;;;;;;5111596;28;20067;-72
2021/03/16 13:11:32;;;;;;;2.67;2.28;;;3.10;81.60;;;;;;5095353;28;20012;-70
2021/03/16 13:13:58;;;;;;;3.20;2.60;;;3.00;74.50;;;;;;5095557;28;20044;-71
2021/03/16 13:16:24;;;;;;;2.53;2.30;;;2.80;74.70;;;;;;5095315;28;20032;-71
2021/03/16 13:18:50;;;;;;;3.08;2.33;;;2.60;73.80;;;;;;5094974;28;20103;-71
2021/03/16 13:21:16;;;;;;;2.25;2.00;;;2.50;74.10;;;;;;5095000;28;20115;-70
2021/03/16 13:23:42;;;;;;;1.90;1.80;;;2.50;74.10;;;;;;5094417;28;20068;-71
2021/03/16 13:26:08;;;;;;;3.10;2.50;;;2.60;75.60;;;;;;5095277;28;20024;-71
2021/03/16 13:28:33;;;;;;;2.70;2.30;;;2.60;75.70;;;;;;5094603;28;20531;-69
2021/03/16 13:31:00;;;;;;;3.17;2.30;;;2.60;75.80;;;;;;5094877;28;20157;-70
2021/03/16 13:33:26;;;;;;;2.90;2.42;;;2.60;75.80;;;;;;5094629;28;20024;-69
2021/03/16 13:35:53;;;;;;;2.88;2.20;;;2.70;79.20;;;;;;5076188;28;20389;-69
2021/03/16 13:38:21;;;;;;;2.88;2.22;;;2.80;76.00;;;;;;5076727;28;20020;-69
2021/03/16 13:40:46;;;;;;;3.17;2.55;;;2.80;74.40;;;;;;5094582;28;20026;-69
2021/03/16 13:43:12;;;;;;;3.47;2.20;;;2.70;74.90;;;;;;5094677;28;20036;-69
2021/03/16 13:45:38;;;;;;;3.08;2.50;;;2.70;75.10;;;;;;5094372;28;20115;-69
2021/03/16 13:48:05;;;;;;;2.53;2.30;;;2.60;75.00;;;;;;5076512;28;20081;-69
2021/03/16 13:50:30;;;;;;;2.35;2.08;;;2.60;74.20;;;;;;5094723;28;20012;-69
2021/03/16 13:52:56;;;;;;;2.55;2.08;;;2.50;74.50;;;;;;5094411;28;20032;-69
2021/03/16 13:55:22;;;;;;;4.18;2.63;;;2.40;74.60;;;;;;5092156;28;20023;-68
2021/03/16 13:57:48;;;;;;;2.55;2.35;;;2.40;81.20;;;;;;5093784;28;20050;-68
2021/03/16 14:00:15;;;;;;;5.47;2.28;;;2.90;82.10;;;;;;5094772;28;20028;-68
2021/03/16 14:02:40;;;;;;;2.40;2.08;;;2.80;76.40;;;;;;5092992;28;20032;-67
2021/03/16 14:05:07;;;;;;;2.78;2.35;;;2.50;75.10;;;;;;5076415;28;20111;-67
2021/03/16 14:07:33;;;;;;;4.63;2.22;;;2.50;76.60;;;;;;5094640;28;20106;-67
2021/03/16 14:10:00;;;;;;;2.55;2.35;;;2.50;77.00;;;;;;5094679;28;20024;-67
2021/03/16 14:12:26;;;;;;;3.30;2.22;;;2.40;76.80;;;;;;5094357;28;20561;-67
2021/03/16 14:14:52;;;;;;;2.70;2.30;;;2.30;77.60;;;;;;5094123;28;20048;-67
2021/03/16 14:17:17;;;;;;;3.38;2.63;;;2.30;77.80;;;;;;5094542;28;20024;-67
2021/03/16 14:19:43;;;;;;;5.15;2.47;;;2.30;77.50;;;;;;5094417;28;20372;-67
2021/03/16 14:22:09;;;;;;;3.13;1.80;;;2.20;77.70;;;;;;5093572;28;20424;-68
2021/03/16 14:24:34;;;;;;;4.30;2.83;;;2.20;78.40;;;;;;5094042;28;20039;-67
2021/03/16 14:27:00;;;;;;;3.72;2.65;;;2.20;78.30;;;;;;5094022;28;20027;-67
2021/03/16 14:29:26;;;;;;;2.50;2.10;;;2.30;78.60;;;;;;5074123;28;20058;-67
2021/03/16 14:31:52;;;;;;;4.68;2.50;;;2.20;78.30;;;;;;5094756;28;20059;-67
2021/03/16 14:34:18;;;;;;;3.75;2.55;;;2.30;78.90;;;;;;5092911;28;20508;-67
2021/03/16 14:36:44;;;;;;;2.60;2.20;;;2.30;79.70;;;;;;5093318;28;20031;-67
2021/03/16 14:39:10;;;;;;;2.72;2.30;;;2.20;80.90;;;;;;5071683;28;20028;-67
2021/03/16 14:41:35;;;;;;;2.78;2.45;;;2.00;82.50;;;;;;5093362;28;20487;-67
2021/03/16 14:44:01;;;;;;;7.00;2.47;;;1.90;83.50;;;;;;5093619;28;20016;-66
2021/03/16 14:46:27;;;;;;;3.00;2.40;;;2.00;83.60;;;;;;5093990;28;20091;-66
2021/03/16 14:48:53;;;;;;;2.92;2.50;;;2.00;84.10;;;;;;5093787;28;20149;-66
2021/03/16 14:51:18;;;;;;;3.25;2.72;;;2.00;82.70;;;;;;5093963;28;20035;-66
2021/03/16 14:53:46;;;;;;;4.40;2.72;;;2.00;84.10;;;;;;5093608;28;20421;-66
2021/03/16 14:56:12;;;;;;;3.28;2.60;;;2.00;84.60;;;;;;5094065;28;20111;-66
2021/03/16 14:58:38;;;;;;;4.25;2.60;;;1.90;84.40;;;;;;5093762;28;20454;-66
2021/03/16 15:01:04;;;;;;;3.58;2.75;;;1.90;84.70;;;;;;5075294;28;20074;-68
2021/03/16 15:03:30;;;;;;;3.55;2.55;;;1.90;85.10;;;;;;5093642;28;20571;-66
2021/03/16 15:05:55;;;;;;;4.63;2.88;;;2.10;95.80;;;;;;5092760;28;20376;-66
2021/03/16 15:08:21;;;;;;;3.25;2.63;;;2.50;99.90;;;;;;5093117;28;20443;-67
2021/03/16 15:10:47;;;;;;;3.03;2.72;;;2.70;91.10;;;;;;5106920;28;20028;-69
2021/03/16 15:13:13;;;;;;;3.30;2.80;;;2.50;86.00;;;;;;5113467;28;20364;-71
2021/03/16 15:15:38;;;;;;;3.70;3.03;;;2.40;86.90;;;;;;5106094;28;20023;-73
2021/03/16 15:18:04;;;;;;;3.63;3.10;;;2.30;87.00;;;;;;5092849;28;20020;-71
2021/03/16 15:20:30;;;;;;;3.00;2.70;;;2.20;86.10;;;;;;5093057;28;20028;-71
2021/03/16 15:22:56;;;;;;;3.53;3.00;;;2.10;86.20;;;;;;5092504;28;20503;-71
2021/03/16 15:25:21;;;;;;;3.78;3.00;;;2.00;87.40;;;;;;5092796;28;20484;-72
2021/03/16 15:27:48;;;;;;;5.60;3.30;;;2.00;87.60;;;;;;5093153;28;20062;-71
2021/03/16 15:30:14;;;;;;;3.72;3.30;;;2.00;88.00;;;;;;5092994;28;20031;-69
2021/03/16 15:32:40;;;;;;;4.35;3.10;;;2.00;88.00;;;;;;5092248;28;20110;-70
2021/03/16 15:35:09;;;;;;;3.65;3.08;;;1.90;88.90;;;;;;5093454;28;20130;-70
2021/03/16 15:37:36;;;;;;;3.78;3.10;;;1.90;89.40;;;;;;5094798;28;20032;-70
2021/03/16 15:40:04;;;;;;;4.25;3.35;;;1.80;90.10;;;;;;5092674;28;20028;-70
2021/03/16 15:42:31;;;;;;;3.80;3.15;;;1.80;90.40;;;;;;5092688;28;20483;-70
2021/03/16 15:44:58;;;;;;;3.63;3.15;;;1.90;90.60;;;;;;5092453;28;20047;-70
2021/03/16 15:47:23;;;;;;;3.60;3.20;;;1.90;90.40;;;;;;5072567;28;20105;-72
2021/03/16 15:49:49;;;;;;;5.00;3.60;;;1.90;90.30;;;;;;5072250;28;20070;-70
2021/03/16 15:52:15;;;;;;;4.07;3.13;;;1.90;90.00;;;;;;5072348;28;20059;-70
2021/03/16 15:54:41;;;;;;;4.80;3.80;;;1.90;90.10;;;;;;5072340;28;20028;-70
2021/03/16 15:57:07;;;;;;;4.38;2.72;;;1.90;90.20;;;;;;5071902;28;20052;-70
2021/03/16 15:59:34;;;;;;;4.22;3.30;;;1.90;90.50;;;;;;5071032;28;20381;-70
2021/03/16 16:02:00;;;;;;;3.40;3.10;;;1.90;90.40;;;;;;5071653;28;20028;-71
2021/03/16 16:04:25;;;;;;;4.25;3.50;;;2.00;90.50;;;;;;5090316;28;20043;-72
2021/03/16 16:06:51;;;;;;;3.45;2.97;;;1.90;90.30;;;;;;5088883;28;20046;-72
2021/03/16 16:09:17;;;;;;;3.92;3.13;;;2.00;90.80;;;;;;5091981;28;20028;-72
2021/03/16 16:11:43;;;;;;;4.35;3.30;;;1.90;90.90;;;;;;5092021;28;20020;-72
2021/03/16 16:14:08;;;;;;;4.03;3.10;;;1.90;90.90;;;;;;5091824;28;20492;-71
2021/03/16 16:16:34;;;;;;;4.20;3.35;;;1.90;90.90;;;;;;5092080;28;20388;-72
2021/03/16 16:19:00;;;;;;;4.13;3.33;;;1.90;90.90;;;;;;5092131;28;20526;-71
2021/03/16 16:21:25;;;;;;;3.42;3.00;;;1.90;91.40;;;;;;5092002;28;20024;-72
2021/03/16 16:23:52;;;;;;;5.22;3.20;;;1.90;91.60;;;;;;5089984;28;20028;-71
2021/03/16 16:26:18;;;;;;;4.40;3.03;;;1.90;91.40;;;;;;5088181;28;20020;-72
2021/03/16 16:28:44;;;;;;;4.18;3.20;;;1.90;91.30;;;;;;5091121;28;20472;-71
2021/03/16 16:31:11;;;;;;;4.40;3.30;;;1.90;91.70;;;;;;5090380;28;20024;-71
2021/03/16 16:33:37;;;;;;;5.07;3.35;;;1.90;92.00;;;;;;5095283;28;20016;-71
2021/03/16 16:36:03;;;;;;;4.05;3.30;;;1.80;92.20;;;;;;5089968;28;20392;-71
2021/03/16 16:38:28;;;;;;;4.43;3.38;;;1.90;92.00;;;;;;5090234;28;20024;-72
2021/03/16 16:40:55;;;;;;;3.72;3.05;;;1.90;92.60;;;;;;5093484;28;20024;-72
2021/03/16 16:43:21;;;;;;;4.65;3.30;;;1.80;92.10;;;;;;5089441;28;20048;-72
2021/03/16 16:45:48;;;;;;;3.38;2.90;;;1.70;92.10;;;;;;5091292;28;20028;-71
2021/03/16 16:48:15;;;;;;;4.25;3.33;;;1.70;92.20;;;;;;5092164;28;20028;-72
2021/03/16 16:50:41;;;;;;;3.88;2.78;;;1.60;92.70;;;;;;5091851;28;20019;-72
2021/03/16 16:53:07;;;;;;;4.13;3.33;;;1.60;92.60;;;;;;5091346;28;20024;-71
2021/03/16 16:55:33;;;;;;;4.38;3.35;;;1.60;93.20;;;;;;5092067;28;20024;-71
2021/03/16 16:57:59;;;;;;;3.85;3.20;;;1.70;93.20;;;;;;5091676;28;20109;-71
2021/03/16 17:00:27;;;;;;;3.83;3.10;;;1.70;93.40;;;;;;5091717;28;20032;-75
2021/03/16 17:02:53;;;;;;;3.15;2.75;;;1.70;93.10;;;;;;5091169;28;20056;-74
2021/03/16 17:05:19;;;;;;;4.18;3.20;;;1.70;93.00;;;;;;5092051;28;20063;-73
2021/03/16 17:07:44;;;;;;;4.38;3.15;;;1.60;93.20;;;;;;5091775;28;20020;-73
2021/03/16 17:10:12;;;;;;;4.13;3.30;;;1.60;93.10;;;;;;5091655;28;20016;-74